Time;durP1;ratioP1;P1;durP2;ratioP2;P2;SDS_P1;SDS_P2;PMS_P1;PMS_P2;Temp;Humidity;BMP_temperature;BMP_pressure;BME280_temperature;BME280_humidity;BME280_pressure;Samples;Min_cycle;Max_cycle;Signal;HPM_P1;HPM_P2
2023/06/03 00:00:14;;;;;;;12.43;4.03;;;;;;;11.39;100.00;96452.94;7403189;19;20396;-76
2023/06/03 00:02:41;;;;;;;5.67;5.07;;;;;;;11.60;100.00;96495.22;7407086;19;20438;-76
2023/06/03 00:05:09;;;;;;;7.70;4.30;;;;;;;11.36;100.00;96462.31;7403205;19;20373;-76
2023/06/03 00:07:36;;;;;;;7.00;3.70;;;;;;;11.44;100.00;96476.56;7402488;19;20357;-76
2023/06/03 00:10:04;;;;;;;10.00;4.10;;;;;;;11.42;100.00;96458.34;7404027;19;20344;-76
2023/06/03 00:12:31;;;;;;;4.83;4.20;;;;;;;11.41;100.00;96485.94;7401140;19;20450;-76
2023/06/03 00:14:58;;;;;;;7.17;4.40;;;;;;;11.58;100.00;96497.44;7402370;19;20405;-76
2023/06/03 00:17:27;;;;;;;5.13;4.30;;;;;;;11.37;100.00;96455.16;7400972;19;20373;-76
2023/06/03 00:19:54;;;;;;;6.50;4.40;;;;;;;11.31;100.00;96448.50;7399138;19;20927;-76
2023/06/03 00:22:21;;;;;;;7.13;4.13;;;;;;;11.19;100.00;96463.25;7400436;19;20415;-76
2023/06/03 00:24:48;;;;;;;6.80;3.83;;;;;;;11.30;100.00;96454.91;7399740;19;20343;-76
2023/06/03 00:27:15;;;;;;;6.10;4.53;;;;;;;11.25;100.00;96448.72;7402242;19;20376;-76
2023/06/03 00:29:43;;;;;;;5.30;4.20;;;;;;;11.25;100.00;96459.31;7400913;19;20373;-76
2023/06/03 00:32:10;;;;;;;7.27;4.10;;;;;;;11.26;100.00;96481.25;7401792;19;20368;-76
2023/06/03 00:34:41;;;;;;;7.70;4.30;;;;;;;11.40;100.00;96489.69;7398634;19;20384;-76
2023/06/03 00:37:08;;;;;;;6.20;4.00;;;;;;;11.41;100.00;96491.22;7404601;19;21075;-76
2023/06/03 00:39:35;;;;;;;7.53;4.60;;;;;;;10.94;100.00;96443.88;7402199;19;20377;-76
2023/06/03 00:42:02;;;;;;;7.23;4.20;;;;;;;11.00;100.00;96446.31;7402809;19;20480;-76
2023/06/03 00:44:29;;;;;;;7.80;3.53;;;;;;;11.05;100.00;96454.81;7398551;19;20355;-76
2023/06/03 00:46:56;;;;;;;9.03;4.20;;;;;;;10.95;100.00;96434.84;7401179;19;20383;-76
2023/06/03 00:49:23;;;;;;;8.80;4.37;;;;;;;11.03;100.00;96453.59;7399892;19;20385;-75
2023/06/03 00:51:50;;;;;;;5.30;4.10;;;;;;;11.13;100.00;96482.31;7402170;19;20691;-76
2023/06/03 00:54:17;;;;;;;5.63;3.53;;;;;;;11.00;100.00;96459.56;7396388;19;20780;-75
2023/06/03 00:56:45;;;;;;;5.80;5.20;;;;;;;11.12;100.00;96472.84;7400840;19;20368;-76
2023/06/03 00:59:16;;;;;;;4.33;3.40;;;;;;;10.98;100.00;96459.09;7399612;19;20424;-76
2023/06/03 01:01:44;;;;;;;4.00;3.17;;;;;;;11.16;100.00;96482.44;7401207;19;20380;-75
2023/06/03 01:04:16;;;;;;;6.90;4.43;;;;;;;11.11;100.00;96466.00;7398034;19;20544;-76
2023/06/03 01:07:02;;;;;;;6.83;4.40;;;;;;;10.71;100.00;96433.97;7401525;19;20349;-76
2023/06/03 01:09:47;;;;;;;10.10;5.00;;;;;;;11.16;100.00;96477.13;7399821;19;21145;-76
2023/06/03 01:12:38;;;;;;;9.40;4.00;;;;;;;11.00;100.00;96483.38;7399121;19;20376;-76
2023/06/03 01:15:14;;;;;;;4.27;3.70;;;;;;;10.89;100.00;96443.31;7398437;19;20387;-76
2023/06/03 01:17:47;;;;;;;5.37;3.83;;;;;;;11.27;100.00;96472.22;7399970;19;20387;-76
2023/06/03 01:20:16;;;;;;;8.50;4.10;;;;;;;10.94;100.00;96451.03;7411942;19;20364;-75
2023/06/03 01:22:46;;;;;;;5.73;3.60;;;;;;;11.03;100.00;96485.34;7420605;19;20436;-76
2023/06/03 01:25:15;;;;;;;6.30;4.07;;;;;;;11.11;100.00;96473.94;7412111;19;20912;-76
2023/06/03 01:27:48;;;;;;;4.37;3.97;;;;;;;10.69;100.00;96399.94;7400110;19;20442;-76
2023/06/03 01:30:19;;;;;;;5.03;4.60;;;;;;;11.07;100.00;96457.91;7398411;19;20441;-76
2023/06/03 01:32:48;;;;;;;4.53;4.07;;;;;;;10.81;100.00;96447.56;7399203;19;20423;-76
2023/06/03 01:35:16;;;;;;;4.50;4.10;;;;;;;10.77;100.00;96448.53;7398124;19;20384;-76
2023/06/03 01:37:44;;;;;;;5.87;4.27;;;;;;;10.94;100.00;96486.19;7397087;19;20448;-76
2023/06/03 01:40:12;;;;;;;4.60;4.20;;;;;;;10.85;100.00;96466.22;7398818;19;20380;-76
2023/06/03 01:42:39;;;;;;;5.70;3.87;;;;;;;10.63;100.00;96462.78;7396476;19;20420;-76
2023/06/03 01:45:07;;;;;;;7.57;4.43;;;;;;;10.66;100.00;96448.16;7398666;19;20704;-76
2023/06/03 01:47:34;;;;;;;6.63;4.70;;;;;;;10.50;100.00;96458.53;7396897;19;20455;-76
2023/06/03 01:50:02;;;;;;;4.10;3.80;;;;;;;10.85;100.00;96490.78;7398567;19;20365;-76
2023/06/03 01:52:30;;;;;;;7.20;4.70;;;;;;;10.59;100.00;96437.34;7397030;19;20444;-76
2023/06/03 01:54:57;;;;;;;4.20;3.80;;;;;;;10.62;100.00;96449.91;7398427;19;20384;-75
2023/06/03 01:57:25;;;;;;;6.37;4.60;;;;;;;10.63;100.00;96489.22;7394800;19;20393;-76
2023/06/03 01:59:55;;;;;;;7.50;4.53;;;;;;;10.41;100.00;96468.38;7398350;19;20368;-76
2023/06/03 02:02:23;;;;;;;8.33;5.20;;;;;;;10.32;100.00;96449.19;7396704;19;20421;-76
2023/06/03 02:04:51;;;;;;;6.50;4.50;;;;;;;10.34;100.00;96473.41;7398107;19;20408;-76
2023/06/03 02:07:18;;;;;;;5.90;4.67;;;;;;;10.57;100.00;96484.47;7396428;19;20737;-75
2023/06/03 02:09:46;;;;;;;7.97;3.70;;;;;;;10.34;100.00;96478.69;7399760;19;20381;-76
2023/06/03 02:12:13;;;;;;;9.97;4.30;;;;;;;10.17;100.00;96449.72;7396383;19;20371;-76
2023/06/03 02:14:40;;;;;;;5.93;4.17;;;;;;;10.18;100.00;96452.03;7396171;19;20959;-76
2023/06/03 02:17:07;;;;;;;4.80;4.40;;;;;;;10.36;100.00;96463.28;7396818;19;20411;-76
2023/06/03 02:19:34;;;;;;;4.70;4.30;;;;;;;10.21;100.00;96453.25;7397811;19;20404;-76
2023/06/03 02:22:01;;;;;;;5.53;4.33;;;;;;;9.92;100.00;96425.75;7397815;19;20392;-76
2023/06/03 02:24:31;;;;;;;5.60;4.70;;;;;;;9.84;100.00;96412.59;7399412;19;20381;-76
2023/06/03 02:27:01;;;;;;;5.53;4.30;;;;;;;10.12;100.00;96460.44;7396959;19;20412;-76
2023/06/03 02:29:29;;;;;;;5.97;4.37;;;;;;;10.44;100.00;96483.63;7399135;19;20376;-76
2023/06/03 02:31:58;;;;;;;7.20;4.77;;;;;;;10.27;100.00;96470.50;7420509;19;20445;-74
2023/06/03 02:34:26;;;;;;;6.17;4.30;;;;;;;10.49;100.00;96482.66;7430918;19;20434;-74
2023/06/03 02:36:53;;;;;;;8.70;4.80;;;;;;;10.61;100.00;96488.78;7431276;19;20396;-74
2023/06/03 02:39:21;;;;;;;4.83;4.33;;;;;;;10.31;100.00;96468.78;7411269;19;20373;-76
2023/06/03 02:41:48;;;;;;;4.63;4.23;;;;;;;10.39;100.00;96483.03;7396929;19;20397;-76
2023/06/03 02:44:16;;;;;;;6.20;4.43;;;;;;;10.13;100.00;96468.06;7393971;19;20445;-76
2023/06/03 02:46:44;;;;;;;5.70;4.50;;;;;;;10.36;100.00;96487.84;7397694;19;20467;-76
2023/06/03 02:49:13;;;;;;;6.83;5.10;;;;;;;10.22;100.00;96454.84;7395326;19;20391;-77
2023/06/03 02:51:40;;;;;;;4.20;3.77;;;;;;;9.99;100.00;96462.22;7397094;19;20701;-76
2023/06/03 02:54:07;;;;;;;6.03;4.63;;;;;;;10.05;100.00;96461.75;7393175;19;20985;-76
2023/06/03 02:56:35;;;;;;;6.60;4.80;;;;;;;10.28;100.00;96493.97;7396837;19;20380;-76
2023/06/03 02:59:02;;;;;;;6.50;5.00;;;;;;;9.83;100.00;96440.88;7396009;19;20349;-76
2023/06/03 03:01:30;;;;;;;7.53;4.37;;;;;;;9.98;100.00;96469.38;7399543;19;20345;-76
2023/06/03 03:03:57;;;;;;;4.10;3.80;;;;;;;10.28;100.00;96495.81;7395730;19;20424;-76
2023/06/03 03:06:25;;;;;;;5.03;4.53;;;;;;;9.89;100.00;96479.22;7396569;19;20411;-76
2023/06/03 03:08:52;;;;;;;6.20;3.63;;;;;;;10.10;100.00;96491.69;7401050;19;20392;-76
2023/06/03 03:11:28;;;;;;;10.07;4.70;;;;;;;9.98;100.00;96485.22;7404382;19;20380;-76
2023/06/03 03:13:58;;;;;;;3.83;3.40;;;;;;;10.21;100.00;96490.25;7399969;19;20960;-76
2023/06/03 03:16:25;;;;;;;8.00;4.53;;;;;;;9.82;100.00;96480.78;7404399;19;20376;-76
2023/06/03 03:18:52;;;;;;;4.50;3.40;;;;;;;9.84;100.00;96466.19;7403660;19;20404;-76
2023/06/03 03:21:19;;;;;;;5.10;3.70;;;;;;;9.74;100.00;96480.50;7404393;19;20379;-76
2023/06/03 03:23:47;;;;;;;6.73;4.60;;;;;;;10.15;100.00;96502.06;7400488;19;20980;-76
2023/06/03 03:26:15;;;;;;;4.27;3.87;;;;;;;9.75;100.00;96484.72;7403782;19;20999;-76
2023/06/03 03:28:44;;;;;;;4.33;3.70;;;;;;;9.75;100.00;96492.63;7402384;19;20400;-76
2023/06/03 03:31:14;;;;;;;6.03;4.30;;;;;;;9.74;100.00;96506.91;7403970;19;20850;-76
2023/06/03 03:33:41;;;;;;;4.53;4.13;;;;;;;9.58;100.00;96465.50;7400308;19;20965;-76
2023/06/03 03:36:11;;;;;;;5.10;4.60;;;;;;;9.76;100.00;96493.41;7400999;19;20400;-76
2023/06/03 03:38:39;;;;;;;3.80;3.50;;;;;;;9.71;100.00;96491.69;7402904;19;20391;-76
2023/06/03 03:41:07;;;;;;;4.53;4.17;;;;;;;9.89;100.00;96495.06;7401684;19;20793;-76
2023/06/03 03:43:36;;;;;;;6.60;4.00;;;;;;;9.91;100.00;96508.72;7401345;19;20431;-76
2023/06/03 03:46:09;;;;;;;4.77;3.80;;;;;;;9.67;100.00;96474.94;7402798;19;20893;-76
2023/06/03 03:48:37;;;;;;;5.10;4.10;;;;;;;9.85;100.00;96494.13;7407927;19;20372;-76
2023/06/03 03:51:04;;;;;;;5.47;4.00;;;;;;;9.85;100.00;96496.78;7412978;19;20400;-76
2023/06/03 03:53:37;;;;;;;4.00;3.60;;;;;;;9.74;100.00;96477.09;7413125;19;20480;-76
2023/06/03 03:56:16;;;;;;;5.13;3.90;;;;;;;9.91;100.00;96484.19;7413357;19;20372;-76
2023/06/03 03:58:49;;;;;;;6.57;3.70;;;;;;;10.14;100.00;96513.75;7415319;19;20408;-76
2023/06/03 04:01:23;;;;;;;4.40;3.20;;;;;;;10.27;100.00;96494.28;7415282;19;20344;-76
2023/06/03 04:03:59;;;;;;;4.83;3.47;;;;;;;10.12;100.00;96506.13;7411396;19;20435;-76
2023/06/03 04:06:36;;;;;;;4.20;3.80;;;;;;;10.18;100.00;96489.03;7411327;19;20944;-76
2023/06/03 04:09:06;;;;;;;4.00;3.57;;;;;;;10.29;100.00;96495.53;7404574;19;20390;-76
2023/06/03 04:11:43;;;;;;;3.67;3.37;;;;;;;10.60;100.00;96518.19;7402156;19;20384;-76
2023/06/03 04:14:16;;;;;;;7.73;4.23;;;;;;;10.72;100.00;96517.50;7395603;19;20448;-76
2023/06/03 04:16:58;;;;;;;7.37;3.57;;;;;;;10.69;100.00;96524.22;7399714;19;20376;-76
2023/06/03 04:19:36;;;;;;;4.80;4.30;;;;;;;10.55;100.00;96526.28;7399874;19;20435;-76
2023/06/03 04:22:17;;;;;;;5.13;3.33;;;;;;;10.73;100.00;96526.97;7400440;19;20379;-76
2023/06/03 04:24:46;;;;;;;4.90;4.50;;;;;;;10.91;100.00;96529.16;7398753;19;20368;-76
2023/06/03 04:27:14;;;;;;;7.00;4.97;;;;;;;10.84;100.00;96512.28;7400261;19;20367;-76
2023/06/03 04:29:41;;;;;;;4.47;3.87;;;;;;;10.87;100.00;96530.16;7399511;19;20393;-76
2023/06/03 04:32:08;;;;;;;4.37;4.00;;;;;;;10.84;100.00;96512.28;7400174;19;20463;-76
2023/06/03 04:34:48;;;;;;;7.03;5.00;;;;;;;11.11;100.00;96526.84;7397236;19;20376;-76
2023/06/03 04:37:16;;;;;;;9.53;4.40;;;;;;;11.06;100.00;96517.22;7400733;19;20732;-76
2023/06/03 04:39:43;;;;;;;4.07;3.77;;;;;;;11.08;100.00;96501.78;7397279;19;20365;-76
2023/06/03 04:42:12;;;;;;;6.97;3.90;;;;;;;11.29;100.00;96501.00;7400650;19;20432;-76
2023/06/03 04:44:40;;;;;;;7.43;4.47;;;;;;;11.34;100.00;96504.22;7396994;19;20383;-77
2023/06/03 04:47:11;;;;;;;5.87;4.40;;;;;;;11.30;100.00;96531.66;7400358;19;20395;-76
2023/06/03 04:49:39;;;;;;;4.83;4.03;;;;;;;11.11;100.00;96476.59;7399150;19;20765;-76
2023/06/03 04:52:10;;;;;;;4.33;3.83;;;;;;;11.34;100.00;96514.03;7401807;19;20378;-76
2023/06/03 04:54:42;;;;;;;6.20;5.23;;;;;;;11.90;100.00;96539.03;7398343;19;20407;-76
2023/06/03 04:57:12;;;;;;;5.30;4.70;;;;;;;11.73;100.00;96516.13;7400768;19;20775;-76
2023/06/03 04:59:40;;;;;;;7.30;4.10;;;;;;;11.78;100.00;96507.19;7399524;19;20368;-76
2023/06/03 05:02:08;;;;;;;4.50;4.10;;;;;;;11.72;100.00;96514.56;7397360;19;20392;-76
2023/06/03 05:04:37;;;;;;;6.43;4.10;;;;;;;11.67;100.00;96509.50;7399677;19;20404;-76
2023/06/03 05:07:05;;;;;;;5.00;4.50;;;;;;;12.09;100.00;96538.50;7398094;19;20384;-76
2023/06/03 05:09:32;;;;;;;11.40;4.90;;;;;;;12.29;100.00;96542.94;7399398;19;20404;-76
2023/06/03 05:11:59;;;;;;;5.20;3.73;;;;;;;12.06;100.00;96523.28;7397364;19;20380;-76
2023/06/03 05:14:29;;;;;;;4.63;3.77;;;;;;;12.08;100.00;96531.66;7398373;19;20412;-76
2023/06/03 05:16:55;;;;;;;6.17;4.30;;;;;;;12.17;100.00;96535.00;7397880;19;20439;-76
2023/06/03 05:19:23;;;;;;;4.77;4.30;;;;;;;11.88;100.00;96524.56;7399406;19;20462;-76
2023/06/03 05:21:50;;;;;;;9.47;3.83;;;;;;;12.30;100.00;96544.50;7399531;19;20751;-76
2023/06/03 05:24:17;;;;;;;8.57;4.40;;;;;;;12.00;100.00;96495.41;7398059;19;20429;-76
2023/06/03 05:26:44;;;;;;;5.50;4.20;;;;;;;12.34;100.00;96512.78;7403333;19;20389;-76
2023/06/03 05:29:11;;;;;;;7.73;3.90;;;;;;;12.37;100.00;96522.72;7400194;19;20400;-76
2023/06/03 05:31:39;;;;;;;3.93;3.63;;;;;;;12.17;100.00;96503.19;7399998;19;20428;-76
2023/06/03 05:34:07;;;;;;;8.50;3.50;;;;;;;12.53;100.00;96546.69;7397454;19;20465;-76
2023/06/03 05:36:35;;;;;;;4.77;4.30;;;;;;;12.27;100.00;96508.00;7397925;19;20360;-75
2023/06/03 05:39:02;;;;;;;4.03;3.10;;;;;;;12.60;100.00;96528.34;7399546;19;20392;-76
2023/06/03 05:41:30;;;;;;;6.20;4.60;;;;;;;12.28;100.00;96498.19;7397479;19;20452;-76
2023/06/03 05:43:57;;;;;;;5.10;3.93;;;;;;;12.61;100.00;96512.09;7397143;19;20521;-75
2023/06/03 05:46:24;;;;;;;5.20;4.23;;;;;;;12.82;100.00;96538.47;7396976;19;20393;-75
2023/06/03 05:48:52;;;;;;;7.13;4.33;;;;;;;12.98;100.00;96544.63;7398871;19;20393;-75
2023/06/03 05:51:21;;;;;;;4.50;4.10;;;;;;;12.89;100.00;96498.88;7399506;19;20364;-76
2023/06/03 05:53:48;;;;;;;5.00;3.93;;;;;;;12.87;100.00;96532.16;7399896;19;20452;-75
2023/06/03 05:56:19;;;;;;;5.13;4.00;;;;;;;13.08;100.00;96551.31;7402031;19;20379;-75
2023/06/03 05:58:46;;;;;;;5.00;3.87;;;;;;;13.24;100.00;96538.16;7401512;19;20719;-76
2023/06/03 06:01:14;;;;;;;5.10;3.70;;;;;;;13.33;100.00;96552.06;7397151;19;20400;-76
2023/06/03 06:03:42;;;;;;;4.90;4.40;;;;;;;13.45;100.00;96530.00;7393769;19;20424;-76
2023/06/03 06:06:11;;;;;;;5.13;3.27;;;;;;;13.50;100.00;96551.78;7396984;19;20728;-76
2023/06/03 06:08:37;;;;;;;5.07;3.93;;;;;;;13.73;100.00;96556.53;7397023;19;20391;-76
2023/06/03 06:11:05;;;;;;;3.63;3.10;;;;;;;13.76;100.00;96555.88;7396831;19;20929;-76
2023/06/03 06:13:32;;;;;;;4.57;4.13;;;;;;;13.52;100.00;96491.13;7391752;19;20980;-77
2023/06/03 06:16:04;;;;;;;5.60;4.40;;;;;;;14.24;100.00;96546.03;7397060;19;20762;-76
2023/06/03 06:18:33;;;;;;;4.93;4.43;;;;;;;14.14;100.00;96537.44;7395194;19;20356;-76
2023/06/03 06:21:00;;;;;;;3.93;3.47;;;;;;;14.47;100.00;96562.94;7397084;19;20841;-77
2023/06/03 06:23:29;;;;;;;5.33;3.53;;;;;;;14.14;99.98;96542.75;7393975;19;20443;-77
2023/06/03 06:25:57;;;;;;;6.30;3.80;;;;;;;14.10;99.06;96530.50;7396626;19;20932;-77
2023/06/03 06:28:26;;;;;;;4.43;4.00;;;;;;;14.41;97.29;96514.50;7395685;19;20384;-78
2023/06/03 06:31:04;;;;;;;5.07;3.63;;;;;;;14.92;96.65;96559.00;7396876;19;20396;-77
2023/06/03 06:33:40;;;;;;;11.03;3.70;;;;;;;14.99;96.87;96537.84;7394493;19;20966;-78
2023/06/03 06:36:22;;;;;;;5.10;3.73;;;;;;;14.91;94.47;96560.09;7394300;19;20404;-74
2023/06/03 06:38:49;;;;;;;3.53;3.20;;;;;;;15.27;93.85;96542.97;7396528;19;20368;-74
2023/06/03 06:41:16;;;;;;;5.30;3.83;;;;;;;15.13;95.52;96542.69;7395079;19;20353;-74
2023/06/03 06:43:44;;;;;;;4.53;3.33;;;;;;;15.59;93.51;96560.38;7393182;19;20737;-74
2023/06/03 06:46:11;;;;;;;7.23;6.30;;;;;;;15.61;92.95;96570.66;7394766;19;20380;-74
2023/06/03 06:48:39;;;;;;;4.10;3.70;;;;;;;15.52;88.05;96544.22;7396041;19;20377;-75
2023/06/03 06:51:07;;;;;;;4.47;3.70;;;;;;;15.76;84.60;96548.50;7394707;19;20381;-75
2023/06/03 06:53:35;;;;;;;5.97;3.60;;;;;;;16.30;83.29;96563.50;7394573;19;20787;-74
2023/06/03 06:56:09;;;;;;;4.60;3.43;;;;;;;15.87;84.53;96549.44;7394878;19;20393;-74
2023/06/03 06:58:49;;;;;;;4.17;3.57;;;;;;;16.05;84.79;96541.75;7393447;19;20372;-74
2023/06/03 07:01:16;;;;;;;8.20;3.33;;;;;;;16.11;83.04;96523.56;7391664;19;20945;-74
2023/06/03 07:03:47;;;;;;;9.00;3.60;;;;;;;16.16;81.58;96544.59;7391953;19;20428;-74
2023/06/03 07:06:15;;;;;;;4.40;3.83;;;;;;;16.55;79.35;96545.97;7394952;19;20373;-74
2023/06/03 07:08:43;;;;;;;7.17;3.30;;;;;;;15.93;81.30;96540.03;7393618;19;20464;-74
2023/06/03 07:11:12;;;;;;;7.80;4.13;;;;;;;16.70;81.99;96554.22;7394766;19;20376;-74
2023/06/03 07:13:50;;;;;;;10.83;4.13;;;;;;;16.44;77.75;96541.63;7392143;19;21012;-74
2023/06/03 07:16:17;;;;;;;3.50;3.20;;;;;;;16.57;77.19;96566.22;7395210;19;20458;-73
2023/06/03 07:18:44;;;;;;;3.60;3.30;;;;;;;16.14;76.29;96520.94;7393712;19;21309;-74
2023/06/03 07:21:15;;;;;;;3.67;3.10;;;;;;;16.70;75.86;96519.53;7395789;19;20415;-74
2023/06/03 07:23:47;;;;;;;5.30;3.67;;;;;;;17.16;74.13;96546.81;7392447;19;20424;-75
2023/06/03 07:26:15;;;;;;;13.60;3.97;;;;;;;16.78;72.50;96532.59;7396239;19;20414;-74
2023/06/03 07:28:46;;;;;;;5.43;4.37;;;;;;;16.82;73.01;96559.34;7395724;19;20345;-75
2023/06/03 07:31:36;;;;;;;4.90;3.90;;;;;;;16.75;72.14;96529.88;7392841;19;20384;-75
2023/06/03 07:34:04;;;;;;;3.40;3.10;;;;;;;16.65;72.52;96533.91;7390439;19;20420;-74
2023/06/03 07:36:39;;;;;;;7.73;4.10;;;;;;;16.68;72.45;96543.88;7391097;19;20376;-74
2023/06/03 07:39:11;;;;;;;4.73;4.27;;;;;;;16.81;71.58;96533.75;7392293;19;20373;-74
2023/06/03 07:41:50;;;;;;;4.60;2.83;;;;;;;16.96;71.64;96554.22;7391481;19;20367;-75
2023/06/03 07:44:44;;;;;;;5.33;4.00;;;;;;;17.61;70.23;96553.06;7390524;19;20373;-75
2023/06/03 07:47:13;;;;;;;5.03;4.07;;;;;;;17.48;69.27;96552.53;7392526;19;21070;-75
2023/06/03 07:49:44;;;;;;;6.83;4.07;;;;;;;17.50;69.29;96552.97;7391094;19;20385;-75
2023/06/03 07:52:17;;;;;;;4.20;3.30;;;;;;;17.34;69.73;96536.34;7392880;19;20737;-75
2023/06/03 07:54:44;;;;;;;3.50;2.90;;;;;;;17.37;69.65;96549.00;7392900;19;20357;-75
2023/06/03 07:57:14;;;;;;;8.27;4.63;;;;;;;17.77;68.43;96564.34;7397229;19;20767;-75
2023/06/03 07:59:51;;;;;;;5.67;3.27;;;;;;;17.94;68.00;96555.72;7398890;19;20445;-75
2023/06/03 08:02:18;;;;;;;4.80;3.90;;;;;;;17.99;67.61;96568.75;7397606;19;20483;-74
2023/06/03 08:04:46;;;;;;;4.23;3.83;;;;;;;18.39;66.65;96550.38;7399416;19;20428;-74
2023/06/03 08:07:15;;;;;;;4.30;3.47;;;;;;;18.54;67.04;96568.06;7407515;19;20335;-77
2023/06/03 08:09:43;;;;;;;4.20;3.80;;;;;;;17.65;66.64;96529.81;7435140;19;20381;-80
2023/06/03 08:12:10;;;;;;;3.90;3.50;;;;;;;17.89;65.66;96560.63;7434609;19;20382;-79
2023/06/03 08:14:39;;;;;;;3.83;3.13;;;;;;;17.91;66.10;96553.03;7421561;19;20355;-75
2023/06/03 08:17:06;;;;;;;3.67;3.10;;;;;;;18.21;65.78;96568.97;7397770;19;20380;-74
2023/06/03 08:19:34;;;;;;;4.50;3.50;;;;;;;17.60;65.94;96546.16;7399714;19;20389;-73
2023/06/03 08:22:01;;;;;;;4.60;3.50;;;;;;;17.58;66.95;96548.44;7402673;19;20344;-74
2023/06/03 08:24:28;;;;;;;3.87;3.33;;;;;;;18.63;65.76;96567.75;7401141;19;20712;-74
2023/06/03 08:26:55;;;;;;;3.80;3.43;;;;;;;19.27;65.15;96576.97;7396718;19;20759;-74
2023/06/03 08:29:22;;;;;;;3.40;3.03;;;;;;;19.14;63.51;96563.13;7400849;19;20335;-74
2023/06/03 08:31:49;;;;;;;6.07;3.53;;;;;;;19.28;64.06;96575.81;7397029;19;20484;-74
2023/06/03 08:34:16;;;;;;;5.70;3.20;;;;;;;19.32;61.99;96576.59;7398505;19;20448;-74
2023/06/03 08:36:43;;;;;;;5.20;4.70;;;;;;;19.58;61.54;96561.41;7402967;19;20861;-74
2023/06/03 08:39:10;;;;;;;3.70;3.20;;;;;;;19.62;61.29;96572.91;7402291;19;20334;-75
2023/06/03 08:41:40;;;;;;;3.40;3.10;;;;;;;18.45;62.05;96557.69;7403083;19;20472;-75
2023/06/03 08:44:28;;;;;;;3.87;3.57;;;;;;;18.86;60.41;96542.31;7398364;19;20441;-75
2023/06/03 08:47:12;;;;;;;3.60;3.30;;;;;;;18.51;61.41;96568.81;7398838;19;20458;-75
2023/06/03 08:49:54;;;;;;;3.43;3.10;;;;;;;18.51;61.96;96558.88;7399517;19;20709;-75
2023/06/03 08:52:23;;;;;;;3.83;3.53;;;;;;;18.90;61.71;96569.09;7401161;19;20401;-75
2023/06/03 08:54:53;;;;;;;5.63;3.93;;;;;;;18.77;61.91;96571.31;7398385;19;20751;-75
2023/06/03 08:57:20;;;;;;;3.93;3.50;;;;;;;18.90;61.60;96548.44;7399016;19;20350;-75
2023/06/03 08:59:52;;;;;;;4.60;4.20;;;;;;;19.01;61.75;96563.81;7399011;19;20419;-75
2023/06/03 09:02:19;;;;;;;4.10;3.53;;;;;;;19.88;61.24;96566.44;7397910;19;20398;-75
2023/06/03 09:04:52;;;;;;;4.13;3.73;;;;;;;19.64;59.45;96554.53;7399401;19;20358;-75
2023/06/03 09:07:20;;;;;;;3.77;2.93;;;;;;;18.28;61.60;96552.94;7398049;19;20376;-75
2023/06/03 09:09:49;;;;;;;4.17;3.63;;;;;;;19.26;61.14;96580.03;7398798;19;20409;-75
2023/06/03 09:12:17;;;;;;;4.30;3.90;;;;;;;19.40;60.48;96570.13;7396415;19;20406;-75
2023/06/03 09:14:46;;;;;;;4.83;3.70;;;;;;;19.41;59.91;96530.66;7398079;19;20402;-75
2023/06/03 09:17:13;;;;;;;5.60;3.47;;;;;;;19.26;60.18;96563.94;7397424;19;20371;-75
2023/06/03 09:19:40;;;;;;;6.97;3.60;;;;;;;19.58;61.08;96558.72;7400229;19;20360;-75
2023/06/03 09:22:08;;;;;;;3.97;3.67;;;;;;;19.19;60.87;96570.78;7399956;19;20875;-75
2023/06/03 09:24:35;;;;;;;5.23;3.57;;;;;;;19.07;62.18;96562.31;7400046;19;20405;-73
2023/06/03 09:27:02;;;;;;;4.17;3.00;;;;;;;18.87;60.62;96548.44;7397172;19;20374;-74
2023/06/03 09:29:30;;;;;;;4.57;3.93;;;;;;;19.01;60.56;96553.09;7398858;19;20376;-73
2023/06/03 09:32:00;;;;;;;3.20;2.90;;;;;;;19.33;60.13;96574.69;7396466;19;20737;-74
2023/06/03 09:34:28;;;;;;;4.17;3.53;;;;;;;18.98;59.78;96535.09;7395961;19;20417;-74
2023/06/03 09:36:56;;;;;;;4.00;3.10;;;;;;;19.37;58.95;96570.13;7398485;19;20404;-74
2023/06/03 09:39:33;;;;;;;6.20;4.20;;;;;;;18.89;59.76;96567.56;7393315;19;20369;-74
2023/06/03 09:42:00;;;;;;;5.50;4.10;;;;;;;18.75;59.58;96551.41;7396320;19;20370;-74
2023/06/03 09:44:49;;;;;;;5.93;3.90;;;;;;;18.83;59.48;96559.13;7396152;19;20338;-74
2023/06/03 09:47:16;;;;;;;4.73;4.33;;;;;;;19.11;60.61;96552.38;7398843;19;20381;-74
2023/06/03 09:50:04;;;;;;;4.77;4.30;;;;;;;18.76;60.63;96569.78;7396461;19;20723;-74
2023/06/03 09:52:38;;;;;;;4.63;4.23;;;;;;;18.18;61.89;96559.78;7394896;19;20425;-74
2023/06/03 09:55:10;;;;;;;3.70;3.40;;;;;;;19.11;61.83;96563.88;7396718;19;20412;-73
2023/06/03 09:57:37;;;;;;;5.83;3.57;;;;;;;18.29;62.16;96533.06;7395703;19;20392;-76
2023/06/03 10:00:12;;;;;;;4.53;3.37;;;;;;;19.06;60.41;96550.03;7397238;19;20401;-74
2023/06/03 10:02:44;;;;;;;5.10;3.63;;;;;;;19.27;60.69;96571.59;7395885;19;20423;-74
2023/06/03 10:05:30;;;;;;;5.63;4.00;;;;;;;19.79;57.90;96569.50;7394425;19;20405;-73
2023/06/03 10:07:57;;;;;;;5.83;3.97;;;;;;;19.19;57.82;96554.69;7396922;19;20386;-73
2023/06/03 10:10:31;;;;;;;5.57;3.93;;;;;;;19.35;58.37;96527.56;7395182;19;20449;-74
2023/06/03 10:12:57;;;;;;;5.83;4.63;;;;;;;20.19;57.70;96557.69;7396531;19;20433;-75
2023/06/03 10:15:38;;;;;;;5.23;3.57;;;;;;;20.38;57.47;96569.97;7394785;19;20401;-75
2023/06/03 10:18:06;;;;;;;3.77;3.40;;;;;;;19.60;57.89;96545.69;7395873;19;20382;-74
2023/06/03 10:20:39;;;;;;;6.53;4.40;;;;;;;19.60;57.93;96575.19;7396006;19;20370;-74
2023/06/03 10:23:08;;;;;;;4.40;3.67;;;;;;;19.77;57.62;96572.59;7393698;19;20493;-74
2023/06/03 10:25:43;;;;;;;4.20;3.80;;;;;;;19.99;56.33;96564.56;7397297;19;20350;-76
2023/06/03 10:28:11;;;;;;;4.20;3.77;;;;;;;20.40;56.59;96573.03;7395216;19;20772;-76
2023/06/03 10:30:40;;;;;;;4.00;3.67;;;;;;;20.89;55.86;96569.56;7396064;19;20382;-76
2023/06/03 10:33:08;;;;;;;4.13;3.83;;;;;;;21.18;56.02;96564.88;7391778;19;20438;-75
2023/06/03 10:35:37;;;;;;;11.83;4.43;;;;;;;21.19;54.88;96552.19;7395107;19;20373;-76
2023/06/03 10:38:07;;;;;;;4.93;3.60;;;;;;;21.04;55.54;96559.53;7395941;19;20345;-75
2023/06/03 10:40:35;;;;;;;3.97;3.67;;;;;;;21.39;54.01;96560.59;7397258;19;20375;-75
2023/06/03 10:43:02;;;;;;;13.63;3.50;;;;;;;21.29;53.23;96556.78;7393447;19;20958;-75
2023/06/03 10:45:30;;;;;;;3.20;3.00;;;;;;;20.91;54.86;96561.88;7396368;19;20423;-75
2023/06/03 10:48:07;;;;;;;6.37;4.10;;;;;;;20.27;55.67;96545.78;7394823;19;20382;-75
2023/06/03 10:50:56;;;;;;;4.60;3.47;;;;;;;21.30;54.44;96568.31;7396392;19;20350;-75
2023/06/03 10:53:41;;;;;;;4.27;3.80;;;;;;;21.07;53.27;96571.44;7394330;19;20752;-75
2023/06/03 10:56:29;;;;;;;5.03;3.37;;;;;;;21.78;52.37;96573.88;7393874;19;20398;-74
2023/06/03 10:59:07;;;;;;;2.83;2.53;;;;;;;21.30;52.97;96561.00;7394588;19;20414;-74
2023/06/03 11:01:57;;;;;;;3.63;3.33;;;;;;;20.85;54.67;96570.72;7396412;19;20366;-75
2023/06/03 11:04:30;;;;;;;3.63;3.30;;;;;;;19.97;54.43;96558.81;7396146;19;20347;-75
2023/06/03 11:06:58;;;;;;;3.93;3.50;;;;;;;20.54;54.73;96559.59;7395887;19;20943;-75
2023/06/03 11:09:38;;;;;;;5.30;3.60;;;;;;;20.52;54.79;96566.53;7396421;19;20399;-75
2023/06/03 11:12:09;;;;;;;4.00;3.50;;;;;;;20.58;53.77;96570.38;7394628;19;20882;-75
2023/06/03 11:14:48;;;;;;;4.70;3.60;;;;;;;20.52;53.80;96558.47;7393254;19;20734;-75
2023/06/03 11:17:18;;;;;;;5.30;3.40;;;;;;;20.29;54.29;96526.59;7393499;19;20393;-75
2023/06/03 11:19:45;;;;;;;3.60;2.67;;;;;;;20.61;52.90;96558.84;7397039;19;20391;-75
2023/06/03 11:22:34;;;;;;;7.50;3.60;;;;;;;20.02;51.60;96564.56;7395014;19;20353;-75
2023/06/03 11:25:02;;;;;;;5.13;3.40;;;;;;;20.53;52.74;96536.59;7394563;19;20378;-75
2023/06/03 11:27:30;;;;;;;3.67;2.97;;;;;;;20.98;52.21;96565.72;7395094;19;20394;-75
2023/06/03 11:30:02;;;;;;;5.00;3.47;;;;;;;21.29;52.30;96545.28;7399625;19;20420;-75
2023/06/03 11:32:36;;;;;;;3.17;2.87;;;;;;;20.70;51.76;96566.50;7403253;19;20404;-75
2023/06/03 11:35:03;;;;;;;9.13;4.80;;;;;;;21.50;51.65;96562.09;7401305;19;20378;-75
2023/06/03 11:37:40;;;;;;;4.03;3.23;;;;;;;20.67;51.28;96565.34;7402713;19;20370;-75
2023/06/03 11:40:17;;;;;;;8.20;3.63;;;;;;;21.73;50.72;96566.97;7401499;19;20381;-75
2023/06/03 11:42:46;;;;;;;3.50;2.90;;;;;;;21.16;50.00;96566.41;7398907;19;21021;-75